Time;durP1;ratioP1;P1;durP2;ratioP2;P2;SDS_P1;SDS_P2;PMS_P1;PMS_P2;Temp;Humidity;BMP_temperature;BMP_pressure;BME280_temperature;BME280_humidity;BME280_pressure;Samples;Min_cycle;Max_cycle;Signal;HPM_P1;HPM_P2
2022/06/09 00:01:21;;;;;;;0.60;0.10;;;16.70;1.00;;;;;;5025732;28;20860;-74
2022/06/09 00:03:53;;;;;;;0.60;0.10;;;16.70;1.00;;;;;;5031875;28;20800;-73
2022/06/09 00:06:26;;;;;;;0.60;0.10;;;16.60;1.00;;;;;;5030958;28;20458;-73
2022/06/09 00:08:54;;;;;;;0.60;0.10;;;16.60;1.00;;;;;;5031719;28;20785;-74
2022/06/09 00:11:25;;;;;;;0.60;0.20;;;16.50;1.00;;;;;;5030019;28;20864;-73
2022/06/09 00:13:53;;;;;;;0.60;0.10;;;16.60;1.00;;;;;;5010428;28;20905;-73
2022/06/09 00:16:22;;;;;;;0.60;0.10;;;16.60;1.00;;;;;;5015161;28;20444;-72
2022/06/09 00:18:50;;;;;;;1.37;1.27;;;16.60;1.00;;;;;;5029691;28;20450;-72
2022/06/09 00:21:18;;;;;;;0.60;0.20;;;16.50;1.00;;;;;;5029175;28;20499;-72
2022/06/09 00:23:46;;;;;;;0.60;0.10;;;16.50;1.00;;;;;;5029747;28;20443;-72
2022/06/09 00:26:13;;;;;;;0.60;0.10;;;16.50;1.00;;;;;;5028872;28;20460;-72
2022/06/09 00:28:43;;;;;;;1.17;1.03;;;16.50;1.00;;;;;;5030797;28;20455;-72
2022/06/09 00:31:11;;;;;;;0.60;0.10;;;;;;;;;;5032014;28;20457;-73
2022/06/09 00:33:39;;;;;;;0.60;0.10;;;16.50;1.00;;;;;;5031923;28;20892;-72
2022/06/09 00:36:07;;;;;;;0.60;0.20;;;16.50;1.00;;;;;;5030599;28;20447;-72
2022/06/09 00:38:35;;;;;;;0.60;0.20;;;16.40;1.00;;;;;;5031847;28;20528;-72
2022/06/09 00:41:03;;;;;;;0.60;0.10;;;16.40;1.00;;;;;;5031810;28;20444;-72
2022/06/09 00:43:32;;;;;;;0.60;0.20;;;16.30;1.00;;;;;;5060544;23;20519;-72
2022/06/09 00:46:12;;;;;;;0.60;0.10;;;16.40;1.00;;;;;;5051122;28;20461;-72
2022/06/09 00:48:45;;;;;;;0.60;0.10;;;16.30;1.00;;;;;;5051841;28;20474;-70
2022/06/09 00:51:30;;;;;;;0.60;0.10;;;16.30;1.00;;;;;;5051406;28;20533;-70
2022/06/09 00:54:04;;;;;;;0.60;0.10;;;16.30;1.00;;;;;;5029226;28;20510;-70
2022/06/09 00:56:34;;;;;;;0.60;0.10;;;16.20;1.00;;;;;;5031115;28;20570;-69
2022/06/09 00:59:02;;;;;;;0.60;0.20;;;16.20;1.00;;;;;;5030436;28;20450;-72
2022/06/09 01:01:33;;;;;;;0.70;0.20;;;16.10;1.00;;;;;;5029805;28;20457;-71
2022/06/09 01:04:05;;;;;;;0.60;0.30;;;16.10;1.00;;;;;;5031101;28;20972;-71
2022/06/09 01:06:36;;;;;;;0.60;0.20;;;16.10;1.00;;;;;;5031033;28;20458;-71
2022/06/09 01:09:09;;;;;;;0.60;0.10;;;16.10;1.00;;;;;;5034335;28;20970;-71
2022/06/09 01:11:37;;;;;;;0.60;0.10;;;16.10;1.00;;;;;;5035294;28;20955;-71
2022/06/09 01:14:07;;;;;;;0.60;0.10;;;16.20;1.00;;;;;;5035005;28;20454;-72
2022/06/09 01:16:49;;;;;;;0.90;0.50;;;16.20;1.00;;;;;;5035232;28;20447;-70
2022/06/09 01:19:45;;;;;;;1.10;0.87;;;16.10;1.00;;;;;;5034933;28;20562;-70
2022/06/09 01:22:26;;;;;;;0.60;0.10;;;16.10;1.00;;;;;;5035501;28;20470;-70
2022/06/09 01:25:20;;;;;;;0.90;0.27;;;16.10;1.00;;;;;;5035198;28;20470;-71
2022/06/09 01:28:10;;;;;;;0.60;0.10;;;16.20;1.00;;;;;;5022761;28;20446;-70
2022/06/09 01:30:46;;;;;;;0.60;0.10;;;16.20;1.00;;;;;;5015742;28;20446;-71
2022/06/09 01:33:21;;;;;;;0.60;0.10;;;16.10;1.00;;;;;;5025787;28;20933;-70
2022/06/09 01:35:54;;;;;;;0.90;0.47;;;16.10;1.00;;;;;;5034896;28;20977;-72
2022/06/09 01:38:23;;;;;;;0.60;0.20;;;16.00;1.00;;;;;;5035068;28;20820;-69
2022/06/09 01:40:50;;;;;;;1.17;0.93;;;17.30;1.00;;;;;;5034472;28;20455;-71
2022/06/09 01:43:19;;;;;;;2.40;0.83;;;16.00;1.00;;;;;;5034344;28;20497;-70
2022/06/09 01:46:00;;;;;;;0.60;0.10;;;16.00;1.00;;;;;;5034674;28;20490;-70
2022/06/09 01:48:29;;;;;;;0.60;0.10;;;16.00;1.00;;;;;;5035045;28;20443;-70
2022/06/09 01:51:03;;;;;;;0.80;0.50;;;16.00;1.00;;;;;;5035226;28;20451;-71
2022/06/09 01:53:36;;;;;;;0.60;0.10;;;16.00;1.00;;;;;;5035018;28;20576;-70
2022/06/09 01:56:08;;;;;;;0.60;0.20;;;16.00;1.00;;;;;;5034088;28;20484;-71
2022/06/09 01:58:41;;;;;;;0.60;0.10;;;16.90;1.00;;;;;;5034741;28;20980;-70
2022/06/09 02:01:13;;;;;;;0.60;0.10;;;15.90;1.00;;;;;;5034590;28;20435;-71
2022/06/09 02:03:44;;;;;;;0.60;0.17;;;18.40;1.00;;;;;;5034359;28;20985;-71
2022/06/09 02:06:13;;;;;;;0.60;0.10;;;15.90;1.00;;;;;;5034402;28;20500;-70
2022/06/09 02:08:42;;;;;;;0.60;0.20;;;15.90;1.00;;;;;;5034630;28;20456;-71
2022/06/09 02:11:12;;;;;;;0.60;0.10;;;16.00;1.00;;;;;;5034168;28;20452;-71
2022/06/09 02:13:52;;;;;;;0.60;0.10;;;16.00;1.00;;;;;;5033863;28;20522;-71
2022/06/09 02:16:23;;;;;;;0.70;0.30;;;16.00;1.00;;;;;;5034100;28;20559;-71
2022/06/09 02:18:54;;;;;;;0.60;0.10;;;15.90;1.00;;;;;;5033819;28;20500;-71
2022/06/09 02:21:27;;;;;;;0.60;0.10;;;15.80;1.00;;;;;;5033667;28;20459;-71
2022/06/09 02:23:55;;;;;;;0.60;0.20;;;15.80;1.00;;;;;;5033917;28;20471;-70
2022/06/09 02:26:23;;;;;;;0.60;0.10;;;15.70;1.00;;;;;;5032916;28;20545;-71
2022/06/09 02:28:52;;;;;;;0.60;0.20;;;;;;;;;;5026074;28;20970;-70
2022/06/09 02:31:22;;;;;;;0.60;0.20;;;15.70;1.00;;;;;;5034033;28;20454;-71
2022/06/09 02:33:52;;;;;;;0.60;0.10;;;15.70;1.00;;;;;;5033391;28;20577;-72
2022/06/09 02:36:20;;;;;;;0.60;0.10;;;15.70;1.00;;;;;;5033322;28;20447;-70
2022/06/09 02:38:48;;;;;;;0.60;0.10;;;15.70;1.00;;;;;;5034422;28;20439;-70
2022/06/09 02:41:16;;;;;;;0.70;0.50;;;15.70;1.00;;;;;;5034676;28;20453;-70
2022/06/09 02:43:44;;;;;;;0.60;0.10;;;15.60;1.00;;;;;;5034825;28;20477;-71
2022/06/09 02:46:13;;;;;;;0.60;0.10;;;15.60;1.00;;;;;;5034719;28;20450;-71
2022/06/09 02:48:42;;;;;;;0.60;0.10;;;15.60;1.00;;;;;;5033942;28;20497;-72
2022/06/09 02:51:23;;;;;;;0.60;0.10;;;15.50;1.00;;;;;;5034326;28;20447;-71
2022/06/09 02:53:51;;;;;;;0.60;0.10;;;15.50;1.00;;;;;;5033877;28;20692;-71
2022/06/09 02:56:20;;;;;;;0.60;0.20;;;15.50;1.00;;;;;;5033265;28;20482;-72
2022/06/09 02:58:48;;;;;;;0.60;0.10;;;15.50;1.00;;;;;;5033582;28;20443;-71
2022/06/09 03:01:16;;;;;;;0.60;0.10;;;15.40;1.00;;;;;;5031016;28;20459;-70
2022/06/09 03:03:45;;;;;;;0.60;0.20;;;15.40;1.00;;;;;;5033642;28;20459;-70
2022/06/09 03:06:13;;;;;;;0.60;0.10;;;15.50;1.00;;;;;;5033017;28;20469;-70
2022/06/09 03:08:42;;;;;;;0.83;0.50;;;15.50;1.00;;;;;;5033942;28;20559;-70
2022/06/09 03:11:10;;;;;;;0.60;0.10;;;15.50;1.00;;;;;;5032930;28;20972;-71
2022/06/09 03:13:39;;;;;;;0.60;0.10;;;15.40;1.00;;;;;;5033196;28;20490;-70
2022/06/09 03:16:08;;;;;;;0.60;0.10;;;15.40;1.00;;;;;;5030682;28;20829;-70
2022/06/09 03:18:36;;;;;;;0.60;0.43;;;15.30;1.00;;;;;;5026519;28;20450;-72
2022/06/09 03:21:06;;;;;;;0.60;0.10;;;;;;;;;;5024692;28;20447;-71
2022/06/09 03:23:34;;;;;;;0.60;0.30;;;15.30;1.00;;;;;;5033817;28;20458;-70
2022/06/09 03:26:02;;;;;;;0.60;0.30;;;15.30;1.00;;;;;;5032573;28;20458;-68
2022/06/09 03:28:30;;;;;;;0.70;0.30;;;15.20;1.00;;;;;;5033120;28;20456;-68
2022/06/09 03:30:59;;;;;;;0.60;0.10;;;15.20;1.00;;;;;;5032779;28;21047;-69
2022/06/09 03:33:27;;;;;;;0.60;0.17;;;15.10;1.00;;;;;;5020237;28;20915;-70
2022/06/09 03:35:55;;;;;;;0.60;0.10;;;15.10;1.00;;;;;;5015841;28;20971;-70
2022/06/09 03:38:24;;;;;;;0.70;0.30;;;15.10;1.00;;;;;;5023965;28;20949;-68
2022/06/09 03:40:52;;;;;;;0.60;0.17;;;15.00;1.00;;;;;;5032563;28;20496;-70
2022/06/09 03:43:20;;;;;;;0.60;0.20;;;15.00;1.00;;;;;;5032216;28;20561;-69
2022/06/09 03:45:48;;;;;;;0.60;0.10;;;15.00;1.00;;;;;;5024783;28;20485;-69
2022/06/09 03:48:17;;;;;;;0.60;0.10;;;15.00;1.00;;;;;;5030911;28;20444;-68
2022/06/09 03:50:45;;;;;;;0.60;0.10;;;15.00;1.00;;;;;;5030731;28;20461;-68
2022/06/09 03:53:13;;;;;;;0.70;0.30;;;15.10;1.00;;;;;;5030053;28;20467;-69
2022/06/09 03:55:42;;;;;;;0.60;0.10;;;15.10;1.00;;;;;;5031922;28;20859;-70
2022/06/09 03:58:10;;;;;;;0.60;0.10;;;15.20;1.00;;;;;;5032044;28;20594;-68
2022/06/09 04:00:38;;;;;;;0.60;0.10;;;15.10;1.00;;;;;;5032365;28;20497;-69
2022/06/09 04:03:07;;;;;;;0.60;0.10;;;15.10;1.00;;;;;;5032258;28;20480;-69
2022/06/09 04:05:37;;;;;;;0.60;0.10;;;15.10;1.00;;;;;;5030598;28;20520;-72
2022/06/09 04:08:06;;;;;;;0.60;0.10;;;15.10;1.00;;;;;;5031697;28;20537;-69
2022/06/09 04:10:35;;;;;;;0.60;0.10;;;15.10;1.00;;;;;;5030794;28;20469;-68
2022/06/09 04:13:05;;;;;;;0.60;0.20;;;15.10;1.00;;;;;;5032125;28;20489;-69
2022/06/09 04:15:34;;;;;;;0.60;0.20;;;15.10;1.00;;;;;;5032669;28;20476;-69
2022/06/09 04:18:04;;;;;;;0.60;0.10;;;15.10;1.00;;;;;;5031850;28;20467;-70
2022/06/09 04:20:32;;;;;;;0.60;0.10;;;15.20;1.00;;;;;;5026947;28;20450;-71
2022/06/09 04:23:01;;;;;;;1.10;0.30;;;15.20;1.00;;;;;;5028084;28;20482;-69
2022/06/09 04:25:29;;;;;;;0.60;0.23;;;16.90;1.00;;;;;;5027036;28;20447;-69
2022/06/09 04:27:57;;;;;;;0.60;0.10;;;15.20;1.00;;;;;;5027909;28;20844;-69
2022/06/09 04:30:26;;;;;;;0.70;0.20;;;15.20;1.00;;;;;;5031632;28;20548;-70
2022/06/09 04:32:55;;;;;;;0.60;0.10;;;15.10;1.00;;;;;;5023905;28;20467;-68
2022/06/09 04:35:24;;;;;;;0.67;0.20;;;15.10;1.00;;;;;;5031327;28;21019;-69
2022/06/09 04:38:01;;;;;;;1.87;0.93;;;15.10;1.00;;;;;;5031643;28;20465;-69
2022/06/09 04:40:33;;;;;;;0.60;0.30;;;15.10;1.00;;;;;;5012904;28;20452;-70
2022/06/09 04:43:02;;;;;;;0.60;0.10;;;15.20;1.00;;;;;;5033358;28;20473;-68
2022/06/09 04:45:33;;;;;;;0.70;0.37;;;15.30;1.00;;;;;;5035930;28;20446;-70
2022/06/09 04:48:00;;;;;;;0.60;0.10;;;15.20;1.00;;;;;;5035645;28;20519;-68
2022/06/09 04:50:29;;;;;;;0.60;0.10;;;15.30;1.00;;;;;;5036617;28;20824;-68
2022/06/09 04:52:57;;;;;;;0.60;0.10;;;15.40;1.00;;;;;;5036125;28;20479;-69
2022/06/09 04:55:25;;;;;;;0.70;0.50;;;15.40;1.00;;;;;;5031422;28;20475;-68
2022/06/09 04:57:53;;;;;;;1.00;0.30;;;15.30;1.00;;;;;;5031734;28;20554;-69
2022/06/09 05:00:21;;;;;;;0.60;0.20;;;15.30;1.00;;;;;;5035974;28;20861;-71
2022/06/09 05:02:51;;;;;;;0.60;0.10;;;15.20;1.00;;;;;;5035383;28;20467;-72
2022/06/09 05:05:21;;;;;;;1.93;0.30;;;15.20;1.00;;;;;;5035607;28;20482;-71
2022/06/09 05:07:49;;;;;;;0.60;0.10;;;15.20;1.00;;;;;;5035334;28;20467;-71
2022/06/09 05:10:17;;;;;;;0.60;0.10;;;15.20;1.00;;;;;;5036083;28;20489;-73
2022/06/09 05:12:45;;;;;;;0.60;0.10;;;15.40;1.00;;;;;;5027394;28;20473;-71
2022/06/09 05:15:15;;;;;;;0.60;0.10;;;15.50;1.00;;;;;;5036060;28;20957;-69
2022/06/09 05:17:43;;;;;;;0.60;0.10;;;15.50;1.00;;;;;;5035166;28;20461;-69
2022/06/09 05:20:14;;;;;;;0.70;0.33;;;15.60;1.00;;;;;;5035624;28;20449;-68
2022/06/09 05:22:42;;;;;;;0.60;0.20;;;15.60;1.00;;;;;;5036027;28;20983;-70
2022/06/09 05:25:11;;;;;;;0.60;0.20;;;15.50;1.00;;;;;;5035475;28;20439;-69
2022/06/09 05:27:39;;;;;;;0.60;0.20;;;15.50;1.00;;;;;;5036202;28;20456;-68
2022/06/09 05:30:12;;;;;;;0.87;0.63;;;15.40;1.00;;;;;;5036945;28;20971;-69
2022/06/09 05:32:39;;;;;;;0.60;0.10;;;15.40;1.00;;;;;;5036404;28;20537;-70
2022/06/09 05:35:09;;;;;;;0.60;0.20;;;15.50;1.00;;;;;;5035707;28;20492;-71
2022/06/09 05:45:59;;;;;;;1.00;0.40;;;15.60;1.00;;;;;;5035008;28;20442;-71
2022/06/09 05:48:27;;;;;;;0.60;0.20;;;15.70;1.00;;;;;;5035086;28;20504;-70
2022/06/09 05:50:56;;;;;;;0.60;0.10;;;15.70;1.00;;;;;;5034968;28;20976;-70
2022/06/09 05:53:25;;;;;;;0.60;0.10;;;15.70;1.00;;;;;;5034950;28;20554;-69
2022/06/09 05:55:53;;;;;;;0.80;0.53;;;15.70;1.00;;;;;;5035373;28;21023;-71
2022/06/09 05:58:21;;;;;;;0.60;0.20;;;15.90;1.00;;;;;;5035807;28;20467;-71
2022/06/09 06:00:49;;;;;;;0.60;0.10;;;15.20;1.00;;;;;;5035950;28;20463;-70
2022/06/09 06:03:18;;;;;;;0.60;0.20;;;15.90;1.00;;;;;;5035787;28;20551;-71
2022/06/09 06:08:32;;;;;;;0.60;0.10;;;16.10;1.00;;;;;;5031881;28;20540;-69
2022/06/09 06:11:00;;;;;;;0.60;0.10;;;16.10;1.00;;;;;;5018409;28;20546;-71
2022/06/09 06:13:28;;;;;;;0.60;0.20;;;16.30;1.00;;;;;;5036138;28;20541;-70
2022/06/09 06:15:56;;;;;;;0.60;0.20;;;16.30;1.00;;;;;;5035356;28;20490;-70
2022/06/09 06:18:44;;;;;;;0.60;0.10;;;16.30;1.00;;;;;;5029535;28;20458;-72
2022/06/09 06:21:13;;;;;;;0.60;0.10;;;16.40;1.00;;;;;;5032823;28;20456;-72
2022/06/09 06:23:42;;;;;;;0.60;0.10;;;16.40;1.00;;;;;;5036591;28;20905;-74
2022/06/09 06:26:11;;;;;;;0.60;0.10;;;16.50;1.00;;;;;;5037024;28;20486;-70
2022/06/09 06:28:40;;;;;;;0.80;0.40;;;16.60;1.00;;;;;;5018349;28;20443;-75
2022/06/09 06:31:08;;;;;;;0.60;0.33;;;16.60;1.00;;;;;;5017830;28;20451;-74
2022/06/09 06:33:36;;;;;;;0.60;0.10;;;16.60;1.00;;;;;;5031602;28;20837;-73
2022/06/09 06:36:04;;;;;;;0.60;0.10;;;;;;;;;;5035968;28;20820;-72
2022/06/09 06:38:33;;;;;;;0.60;0.10;;;16.70;1.00;;;;;;5035491;28;20439;-73
2022/06/09 06:41:04;;;;;;;0.60;0.10;;;16.70;1.00;;;;;;5034572;28;20471;-72
2022/06/09 06:43:32;;;;;;;0.60;0.10;;;16.80;1.00;;;;;;5034991;28;20566;-72
2022/06/09 06:46:02;;;;;;;0.60;0.20;;;16.80;1.00;;;;;;5033744;28;20435;-73
2022/06/09 06:48:30;;;;;;;0.60;0.10;;;16.70;1.00;;;;;;5028549;28;20544;-75
2022/06/09 06:50:58;;;;;;;0.60;0.13;;;16.80;1.00;;;;;;5035124;28;20540;-70
2022/06/09 06:53:26;;;;;;;0.60;0.10;;;16.90;1.00;;;;;;5034874;28;20492;-72
2022/06/09 06:55:54;;;;;;;0.60;0.10;;;17.20;1.00;;;;;;5033959;28;20482;-70
2022/06/09 06:58:23;;;;;;;1.00;0.50;;;17.20;1.00;;;;;;5033542;28;20451;-72
2022/06/09 07:00:52;;;;;;;0.70;0.30;;;17.30;1.00;;;;;;5029515;28;20470;-73
2022/06/09 07:03:20;;;;;;;0.60;0.10;;;;;;;;;;5030330;28;20474;-70
2022/06/09 07:06:01;;;;;;;0.93;0.90;;;17.40;1.00;;;;;;5029900;28;20459;-72
2022/06/09 07:08:29;;;;;;;0.60;0.10;;;17.40;1.00;;;;;;5033972;28;20537;-71
2022/06/09 07:10:57;;;;;;;0.60;0.10;;;17.40;1.00;;;;;;5034483;28;20526;-73
2022/06/09 07:13:26;;;;;;;0.60;0.20;;;17.50;1.00;;;;;;5034171;28;20470;-73
2022/06/09 07:15:55;;;;;;;0.60;0.10;;;17.60;1.00;;;;;;5037139;28;20505;-71
2022/06/09 07:18:29;;;;;;;0.60;0.10;;;17.60;1.00;;;;;;5034315;28;20449;-70
2022/06/09 07:20:57;;;;;;;0.60;0.10;;;17.70;1.00;;;;;;5034685;28;20475;-72
2022/06/09 07:23:26;;;;;;;0.60;0.10;;;17.80;1.00;;;;;;5019689;28;20480;-71
2022/06/09 07:25:56;;;;;;;0.90;0.57;;;17.90;1.00;;;;;;5029613;28;20451;-71
2022/06/09 07:28:26;;;;;;;0.60;0.10;;;17.90;1.00;;;;;;5027215;28;20522;-72
2022/06/09 07:30:56;;;;;;;0.70;0.67;;;17.90;1.00;;;;;;5040583;28;20968;-71
2022/06/09 07:33:26;;;;;;;1.67;0.80;;;17.70;1.00;;;;;;5030433;28;20455;-71
2022/06/09 07:35:54;;;;;;;0.90;0.47;;;17.40;1.00;;;;;;5028170;28;20491;-71
2022/06/09 07:38:22;;;;;;;0.60;0.10;;;17.10;1.00;;;;;;5031937;28;21038;-72
2022/06/09 07:40:51;;;;;;;0.60;0.10;;;17.00;1.00;;;;;;5027861;28;20553;-71
2022/06/09 07:43:40;;;;;;;0.60;0.10;;;16.90;1.00;;;;;;5028199;28;20468;-70
2022/06/09 07:46:08;;;;;;;0.80;0.60;;;16.90;1.00;;;;;;5016099;28;20444;-70
2022/06/09 07:48:36;;;;;;;0.60;0.20;;;16.90;1.00;;;;;;5012941;28;20773;-70
2022/06/09 07:51:16;;;;;;;0.80;0.30;;;17.00;1.00;;;;;;5013449;28;20483;-72
2022/06/09 07:53:44;;;;;;;0.60;0.10;;;17.00;1.00;;;;;;5019409;28;20869;-72
2022/06/09 07:56:12;;;;;;;0.60;0.10;;;17.00;1.00;;;;;;5032929;28;20505;-71
2022/06/09 07:58:42;;;;;;;0.60;0.10;;;17.20;1.00;;;;;;5033307;28;20436;-70
2022/06/09 08:01:10;;;;;;;0.70;0.33;;;17.40;1.00;;;;;;5033208;28;20447;-72
2022/06/09 08:03:40;;;;;;;0.60;0.10;;;17.50;1.00;;;;;;5034308;28;20525;-71
2022/06/09 08:06:09;;;;;;;0.60;0.20;;;17.50;1.00;;;;;;5034558;28;20470;-74
2022/06/09 08:08:56;;;;;;;0.60;0.20;;;17.60;1.00;;;;;;5035740;28;20439;-71
2022/06/09 08:11:26;;;;;;;0.83;0.50;;;17.60;1.00;;;;;;5034592;28;20462;-71
2022/06/09 08:13:56;;;;;;;0.80;0.43;;;17.60;1.00;;;;;;5028832;28;20511;-71
2022/06/09 08:16:24;;;;;;;0.80;0.40;;;17.60;1.00;;;;;;5022292;28;20869;-70
2022/06/09 08:18:53;;;;;;;0.60;0.23;;;17.60;1.00;;;;;;5031064;28;20454;-71
2022/06/09 08:21:21;;;;;;;1.13;1.03;;;17.50;1.00;;;;;;5029363;28;20458;-71
2022/06/09 08:24:07;;;;;;;0.60;0.10;;;17.40;1.00;;;;;;5020799;28;20434;-71
2022/06/09 08:26:35;;;;;;;0.60;0.23;;;17.30;1.00;;;;;;5021177;28;20443;-70
2022/06/09 08:29:06;;;;;;;13.43;3.67;;;17.10;1.00;;;;;;5020324;28;20791;-70
2022/06/09 08:31:34;;;;;;;0.60;0.10;;;17.10;1.00;;;;;;5019393;28;20440;-71
2022/06/09 08:34:02;;;;;;;0.60;0.10;;;17.10;1.00;;;;;;5021672;28;20434;-74
2022/06/09 08:36:30;;;;;;;0.60;0.10;;;;;;;;;;5022418;28;20533;-70
2022/06/09 08:38:58;;;;;;;0.60;0.27;;;17.10;1.00;;;;;;5020403;28;20441;-71
2022/06/09 08:41:37;;;;;;;0.60;0.20;;;17.10;1.00;;;;;;5012637;28;20449;-69
2022/06/09 08:44:18;;;;;;;0.60;0.10;;;17.20;1.00;;;;;;5029474;28;20478;-72
2022/06/09 08:46:51;;;;;;;0.60;0.10;;;17.20;1.00;;;;;;5030652;28;20534;-71
2022/06/09 08:49:39;;;;;;;0.60;0.20;;;17.20;1.00;;;;;;5020834;28;20793;-72
2022/06/09 08:52:16;;;;;;;0.60;0.20;;;17.30;1.00;;;;;;5029786;28;20530;-69
2022/06/09 08:54:46;;;;;;;0.60;0.10;;;17.40;1.00;;;;;;5031768;28;20492;-69
2022/06/09 08:57:17;;;;;;;0.60;0.20;;;17.50;1.00;;;;;;5031432;28;20490;-71
2022/06/09 08:59:54;;;;;;;0.60;0.20;;;17.60;1.00;;;;;;5033866;28;20479;-70
2022/06/09 09:02:32;;;;;;;0.60;0.10;;;17.80;1.00;;;;;;5032070;28;20461;-70
2022/06/09 09:05:15;;;;;;;0.60;0.10;;;17.80;1.00;;;;;;5032147;28;20450;-71
2022/06/09 09:07:46;;;;;;;0.60;0.10;;;18.00;1.00;;;;;;5031969;28;20439;-71
2022/06/09 09:10:21;;;;;;;0.60;0.10;;;18.10;1.00;;;;;;5033199;28;20458;-71
2022/06/09 09:13:00;;;;;;;0.60;0.10;;;18.20;1.00;;;;;;5033545;28;20573;-72
2022/06/09 09:15:34;;;;;;;0.60;0.10;;;18.40;1.00;;;;;;5031363;28;20530;-71
2022/06/09 09:18:15;;;;;;;0.80;0.40;;;18.60;1.00;;;;;;5031609;28;20534;-72
2022/06/09 09:20:54;;;;;;;0.80;0.60;;;18.60;1.00;;;;;;5031910;28;20538;-72
2022/06/09 09:23:30;;;;;;;0.60;0.20;;;18.60;1.00;;;;;;5032043;28;20463;-72
2022/06/09 09:26:07;;;;;;;0.80;0.50;;;18.70;1.00;;;;;;5031838;28;20927;-74
2022/06/09 09:28:47;;;;;;;0.60;0.20;;;18.80;1.00;;;;;;5032177;28;20439;-70
2022/06/09 09:31:29;;;;;;;0.60;0.20;;;18.70;1.00;;;;;;5034511;28;20465;-72
2022/06/09 09:33:57;;;;;;;0.60;0.20;;;18.80;1.00;;;;;;5030465;28;20474;-73
2022/06/09 09:36:28;;;;;;;0.60;0.10;;;18.80;1.00;;;;;;5034460;28;20528;-70
2022/06/09 09:39:00;;;;;;;0.60;0.10;;;19.00;1.00;;;;;;5034748;28;20435;-70
2022/06/09 09:41:33;;;;;;;0.60;0.20;;;19.00;1.00;;;;;;5034684;28;20435;-70
2022/06/09 09:44:15;;;;;;;0.60;0.10;;;19.10;1.00;;;;;;5034326;28;20431;-72
2022/06/09 09:46:49;;;;;;;0.60;0.20;;;19.20;1.00;;;;;;5028689;28;20443;-72
2022/06/09 09:49:22;;;;;;;0.60;0.10;;;19.40;99.90;;;;;;5023066;28;20444;-73
2022/06/09 09:51:56;;;;;;;0.60;0.10;;;19.60;99.90;;;;;;5033840;28;20779;-70
2022/06/09 09:54:31;;;;;;;0.60;0.10;;;19.60;99.90;;;;;;5029773;28;20436;-70
2022/06/09 09:57:14;;;;;;;0.60;0.20;;;19.80;99.90;;;;;;5027636;28;20479;-71
2022/06/09 09:59:46;;;;;;;0.60;0.10;;;19.80;99.90;;;;;;5034497;28;20443;-71
2022/06/09 10:08:38;;;;;;;0.70;0.40;;;19.80;99.90;;;;;;5034766;28;20459;-71
2022/06/09 10:14:06;;;;;;;0.80;0.23;;;18.90;1.00;;;;;;5027392;28;20466;-71
2022/06/09 10:16:52;;;;;;;0.60;0.20;;;18.70;1.00;;;;;;5033891;28;20488;-72
2022/06/09 10:19:40;;;;;;;0.60;0.10;;;18.60;1.00;;;;;;5034139;28;20458;-72
2022/06/09 10:22:27;;;;;;;0.70;0.30;;;18.60;1.00;;;;;;5034723;28;20458;-71
2022/06/09 10:25:19;;;;;;;0.60;0.10;;;18.50;1.00;;;;;;5034186;28;20452;-70
2022/06/09 10:27:53;;;;;;;0.63;0.33;;;18.40;1.00;;;;;;5021654;28;20472;-69
2022/06/09 10:30:33;;;;;;;2.20;0.67;;;18.30;1.00;;;;;;5014377;28;20451;-69
2022/06/09 10:33:08;;;;;;;0.60;0.20;;;18.40;1.00;;;;;;5014256;28;21062;-71
2022/06/09 10:35:43;;;;;;;0.60;0.30;;;18.70;1.00;;;;;;5013921;28;20475;-73
2022/06/09 10:38:19;;;;;;;0.60;0.10;;;18.80;1.00;;;;;;5013595;28;20582;-72
2022/06/09 10:40:53;;;;;;;0.60;0.10;;;18.80;1.00;;;;;;5013356;28;20451;-72
2022/06/09 10:43:28;;;;;;;0.60;0.10;;;18.90;1.00;;;;;;5028966;28;20471;-70
2022/06/09 10:46:12;;;;;;;0.60;0.10;;;19.00;1.00;;;;;;5033037;28;21092;-70
2022/06/09 10:57:27;;;;;;;0.60;0.10;;;19.10;99.90;;;;;;5031687;28;20482;-71
2022/06/09 11:00:02;;;;;;;0.60;0.27;;;19.20;99.90;;;;;;5032269;28;20980;-70
2022/06/09 11:02:32;;;;;;;0.70;0.20;;;19.10;99.90;;;;;;5033591;28;20463;-71
2022/06/09 11:05:01;;;;;;;0.60;0.20;;;19.10;99.90;;;;;;5033140;28;20459;-72
2022/06/09 11:07:48;;;;;;;1.33;0.60;;;19.10;99.90;;;;;;5033145;28;20447;-69
2022/06/09 11:10:28;;;;;;;0.60;0.10;;;19.30;99.90;;;;;;5033159;28;20864;-70
2022/06/09 11:13:21;;;;;;;2.73;0.37;;;19.40;99.90;;;;;;5032919;28;20471;-72
2022/06/09 11:15:57;;;;;;;0.80;0.50;;;19.50;99.90;;;;;;5026804;28;20456;-69
2022/06/09 11:18:36;;;;;;;0.60;0.10;;;19.70;99.90;;;;;;5027223;28;20471;-70
2022/06/09 11:21:15;;;;;;;0.70;0.50;;;19.60;99.90;;;;;;5031202;28;20443;-70
2022/06/09 11:24:00;;;;;;;2.23;0.40;;;19.40;99.90;;;;;;5031324;28;20467;-70
2022/06/09 11:26:38;;;;;;;3.93;0.70;;;19.30;99.90;;;;;;5024141;28;20539;-71
2022/06/09 11:29:20;;;;;;;0.60;0.10;;;19.20;1.00;;;;;;5033433;28;20454;-71
2022/06/09 11:31:57;;;;;;;0.60;0.10;;;19.00;1.00;;;;;;5033354;28;20534;-71
2022/06/09 11:34:43;;;;;;;0.60;0.20;;;19.00;1.00;;;;;;5032526;28;20466;-70
2022/06/09 11:37:32;;;;;;;0.60;0.10;;;19.00;1.00;;;;;;5032483;28;20455;-69
2022/06/09 11:40:21;;;;;;;0.60;0.17;;;18.80;1.00;;;;;;5034690;28;20470;-70
2022/06/09 11:43:06;;;;;;;0.70;0.30;;;18.80;1.00;;;;;;5033067;28;20522;-69
2022/06/09 11:45:41;;;;;;;0.60;0.13;;;18.70;1.00;;;;;;5033522;28;20505;-70
2022/06/09 11:48:16;;;;;;;1.13;0.60;;;18.70;1.00;;;;;;5032276;28;20439;-71
2022/06/09 11:50:45;;;;;;;0.90;0.40;;;18.70;1.00;;;;;;5032548;28;20454;-70
2022/06/09 11:53:19;;;;;;;0.70;0.30;;;18.70;1.00;;;;;;5032374;28;20558;-70
2022/06/09 11:55:58;;;;;;;0.70;0.40;;;18.60;1.00;;;;;;5032700;28;20446;-71
2022/06/09 11:58:44;;;;;;;0.60;0.10;;;18.70;1.00;;;;;;5032570;28;20487;-71
2022/06/09 12:01:33;;;;;;;3.23;0.83;;;18.80;1.00;;;;;;5032981;28;20439;-69
2022/06/09 12:04:21;;;;;;;0.70;0.30;;;18.80;1.00;;;;;;5033321;28;20450;-69
2022/06/09 12:07:09;;;;;;;0.60;0.10;;;18.80;99.90;;;;;;5032207;28;20450;-70
2022/06/09 12:09:47;;;;;;;0.60;0.10;;;19.00;1.00;;;;;;5032503;28;20512;-73
2022/06/09 12:12:31;;;;;;;0.60;0.10;;;19.20;1.00;;;;;;5033015;28;20574;-73
2022/06/09 12:15:19;;;;;;;0.60;0.10;;;19.30;99.90;;;;;;5032355;28;20538;-71
2022/06/09 12:18:06;;;;;;;0.60;0.20;;;19.50;1.00;;;;;;5032063;28;20483;-70
2022/06/09 12:20:39;;;;;;;0.60;0.10;;;19.60;99.90;;;;;;5032985;28;20443;-71
2022/06/09 12:23:28;;;;;;;1.63;0.97;;;20.00;99.90;;;;;;5032349;28;21007;-69
2022/06/09 12:26:21;;;;;;;1.60;1.30;;;19.00;99.90;;;;;;5032898;28;20862;-71
2022/06/09 12:29:03;;;;;;;1.10;0.53;;;19.80;99.90;;;;;;5032705;28;20439;-71
2022/06/09 12:31:33;;;;;;;0.70;0.50;;;19.70;99.90;;;;;;5032462;28;20948;-71
2022/06/09 12:34:02;;;;;;;0.70;0.30;;;19.60;99.90;;;;;;5032652;28;20444;-70
2022/06/09 12:36:39;;;;;;;0.60;0.30;;;19.90;99.90;;;;;;5032639;28;20819;-72
2022/06/09 12:39:17;;;;;;;0.60;0.20;;;19.80;99.90;;;;;;5032699;28;20801;-71
2022/06/09 12:41:51;;;;;;;1.90;0.20;;;19.70;99.90;;;;;;5034269;28;20961;-70
2022/06/09 12:44:29;;;;;;;0.60;0.10;;;19.80;99.90;;;;;;5067781;23;20875;-76
2022/06/09 12:46:58;;;;;;;0.60;0.10;;;19.90;99.90;;;;;;5050652;28;20443;-73
2022/06/09 12:49:30;;;;;;;0.60;0.20;;;20.10;99.90;;;;;;5050995;28;20446;-72
2022/06/09 12:51:58;;;;;;;0.60;0.20;;;20.30;99.90;;;;;;5051507;28;20454;-72
2022/06/09 12:54:36;;;;;;;0.60;0.10;;;20.50;99.90;;;;;;5051148;28;20501;-71
2022/06/09 12:57:07;;;;;;;0.60;0.20;;;20.60;99.90;;;;;;5048829;28;20448;-74
2022/06/09 12:59:38;;;;;;;0.60;0.20;;;20.50;99.90;;;;;;5049102;28;20880;-73
2022/06/09 13:02:21;;;;;;;0.60;0.10;;;20.50;99.90;;;;;;5049990;28;20446;-74
2022/06/09 13:04:56;;;;;;;0.60;0.10;;;20.60;99.90;;;;;;5053155;28;20447;-73
2022/06/09 13:07:27;;;;;;;0.80;0.20;;;20.70;99.90;;;;;;5054868;28;20445;-74
2022/06/09 13:10:17;;;;;;;0.60;0.10;;;20.80;99.90;;;;;;5055168;28;20446;-74
2022/06/09 13:12:52;;;;;;;0.60;0.20;;;20.70;99.90;;;;;;5055367;28;20458;-73
2022/06/09 13:15:37;;;;;;;0.60;0.10;;;20.70;99.90;;;;;;5054759;28;20860;-72
2022/06/09 13:18:15;;;;;;;0.60;0.20;;;20.50;99.90;;;;;;5054735;28;20655;-74
2022/06/09 13:20:50;;;;;;;0.60;0.10;;;20.70;99.90;;;;;;5054446;28;20508;-73
2022/06/09 13:23:19;;;;;;;1.90;0.70;;;20.80;99.90;;;;;;5055282;28;20462;-74
2022/06/09 13:25:47;;;;;;;0.70;0.37;;;20.70;99.90;;;;;;5054726;28;20446;-74
2022/06/09 13:28:37;;;;;;;0.60;0.10;;;20.60;99.90;;;;;;5054057;28;20439;-72
2022/06/09 13:31:28;;;;;;;0.67;0.30;;;20.50;99.90;;;;;;5054593;28;21021;-73
2022/06/09 13:33:59;;;;;;;4.10;0.73;;;20.60;99.90;;;;;;5054335;28;20976;-73
2022/06/09 13:36:31;;;;;;;0.60;0.10;;;20.60;99.90;;;;;;5053970;28;20455;-74
2022/06/09 13:39:15;;;;;;;0.60;0.10;;;20.90;99.90;;;;;;5054805;28;20867;-72
2022/06/09 13:41:43;;;;;;;2.10;0.60;;;21.20;99.90;;;;;;5054015;28;20442;-73
2022/06/09 13:44:17;;;;;;;0.60;0.10;;;21.10;99.90;;;;;;5054451;28;20474;-72
2022/06/09 13:47:01;;;;;;;1.90;1.20;;;21.30;99.90;;;;;;5054035;28;20965;-71
2022/06/09 13:49:39;;;;;;;0.80;0.80;;;21.30;99.90;;;;;;5054717;28;20530;-72
2022/06/09 13:52:26;;;;;;;0.73;0.50;;;21.30;99.90;;;;;;5054545;28;20449;-73
2022/06/09 13:54:55;;;;;;;0.60;0.20;;;21.30;99.90;;;;;;5062878;28;20942;-74
2022/06/09 13:57:33;;;;;;;0.70;0.27;;;21.50;99.90;;;;;;5074305;28;20951;-73